Time;durP1;ratioP1;P1;durP2;ratioP2;P2;SDS_P1;SDS_P2;PMS_P1;PMS_P2;Temp;Humidity;BMP_temperature;BMP_pressure;BME280_temperature;BME280_humidity;BME280_pressure;Samples;Min_cycle;Max_cycle;Signal;HPM_P1;HPM_P2
2022/03/04 00:03:05;;;;;;;;;;;;;;;3.19;79.91;100772.97;10257333;28;19929;-69
2022/03/04 00:08:09;;;;;;;;;;;;;;;3.16;79.58;100773.72;10256947;28;19922;-69
2022/03/04 00:13:13;;;;;;;;;;;;;;;3.18;80.11;100769.50;10256962;28;19922;-67
2022/03/04 00:18:17;;;;;;;;;;;;;;;3.20;79.61;100772.13;10257454;28;19926;-67
2022/03/04 00:23:20;;;;;;;;;;;;;;;3.21;78.91;100772.16;10256749;28;19933;-68
2022/03/04 00:28:23;;;;;;;;;;;;;;;3.13;83.05;100763.41;10256856;28;19929;-71
2022/03/04 00:33:28;;;;;;;;;;;;;;;3.12;82.73;100761.66;10256355;28;20257;-64
2022/03/04 00:38:31;;;;;;;;;;;;;;;3.21;82.34;100763.63;10256684;28;19922;-68
2022/03/04 00:43:35;;;;;;;;;;;;;;;3.15;82.64;100758.31;10267050;28;20247;-68
2022/03/04 00:48:39;;;;;;;;;;;;;;;3.11;84.01;100759.06;10269474;28;20021;-67
2022/03/04 00:53:42;;;;;;;;;;;;;;;3.13;84.41;100765.97;10269382;28;19923;-68
2022/03/04 00:58:45;;;;;;;;;;;;;;;3.10;84.60;100776.16;10269348;28;19969;-65
2022/03/04 01:03:50;;;;;;;;;;;;;;;2.96;86.20;100766.34;10269077;28;19922;-68
2022/03/04 01:08:53;;;;;;;;;;;;;;;3.06;85.95;100763.19;10269202;28;19923;-69
2022/03/04 01:13:56;;;;;;;;;;;;;;;3.16;85.76;100763.47;10269088;28;19927;-67
2022/03/04 01:19:01;;;;;;;;;;;;;;;3.09;85.38;100766.72;10269187;28;19960;-69
2022/03/04 01:24:04;;;;;;;;;;;;;;;3.12;86.52;100764.22;10269458;28;20009;-68
2022/03/04 01:29:07;;;;;;;;;;;;;;;3.13;86.50;100768.53;10268963;28;20298;-69
2022/03/04 01:34:12;;;;;;;;;;;;;;;3.07;87.03;100762.38;10269360;28;20334;-69
2022/03/04 01:39:15;;;;;;;;;;;;;;;3.03;87.40;100765.69;10268889;28;19922;-69
2022/03/04 01:44:18;;;;;;;;;;;;;;;3.04;89.52;100770.84;10268689;28;19922;-69
2022/03/04 01:49:23;;;;;;;;;;;;;;;3.20;89.01;100769.56;10268562;28;20350;-70
2022/03/04 01:54:26;;;;;;;;;;;;;;;3.09;88.68;100765.88;10263108;28;19926;-62
2022/03/04 01:59:29;;;;;;;;;;;;;;;3.05;90.67;100769.16;10261942;28;19932;-64
2022/03/04 02:04:36;;;;;;;;;;;;;;;3.14;91.89;100766.84;10261778;28;19933;-65
2022/03/04 02:09:39;;;;;;;;;;;;;;;3.14;91.29;100769.41;10261966;28;19943;-65
2022/03/04 02:14:42;;;;;;;;;;;;;;;3.25;92.10;100762.84;10261846;28;19932;-67
2022/03/04 02:19:51;;;;;;;;;;;;;;;3.23;91.59;100761.94;10261733;28;19984;-70
2022/03/04 02:24:55;;;;;;;;;;;;;;;3.26;89.79;100764.59;10260876;28;19922;-67
2022/03/04 02:29:58;;;;;;;;;;;;;;;3.29;91.25;100769.78;10261205;28;20251;-67
2022/03/04 02:35:03;;;;;;;;;;;;;;;3.23;93.13;100770.50;10260398;29;19945;-68
2022/03/04 02:40:08;;;;;;;;;;;;;;;3.28;94.47;100774.03;10260423;29;19923;-66
2022/03/04 02:45:11;;;;;;;;;;;;;;;3.22;95.58;100775.59;10260476;29;19922;-65
2022/03/04 02:50:14;;;;;;;;;;;;;;;3.20;97.11;100762.72;10260020;29;19928;-68
2022/03/04 02:55:19;;;;;;;;;;;;;;;3.26;98.81;100770.56;10260369;28;20355;-64
2022/03/04 03:00:22;;;;;;;;;;;;;;;3.20;99.78;100769.56;10259703;28;19933;-66
2022/03/04 03:05:25;;;;;;;;;;;;;;;3.25;99.41;100770.53;10259078;28;20267;-66
2022/03/04 03:10:31;;;;;;;;;;;;;;;3.29;100.00;100762.09;10259187;28;20254;-68
2022/03/04 03:15:34;;;;;;;;;;;;;;;3.21;100.00;100761.06;10258995;28;20263;-68
2022/03/04 03:20:37;;;;;;;;;;;;;;;3.20;100.00;100759.28;10259054;28;19953;-66
2022/03/04 03:25:41;;;;;;;;;;;;;;;3.24;100.00;100762.00;10258860;28;19933;-66
2022/03/04 03:30:44;;;;;;;;;;;;;;;3.25;100.00;100775.66;10258320;28;19991;-67
2022/03/04 03:35:47;;;;;;;;;;;;;;;3.28;100.00;100778.28;10258379;28;19926;-73
2022/03/04 03:40:52;;;;;;;;;;;;;;;3.25;100.00;100784.22;10258265;28;19930;-64
2022/03/04 03:46:14;;;;;;;;;;;;;;;3.27;100.00;100784.28;10258307;28;19922;-69
2022/03/04 03:51:17;;;;;;;;;;;;;;;3.15;100.00;100783.94;10258089;28;19988;-66
2022/03/04 03:56:22;;;;;;;;;;;;;;;3.15;100.00;100789.09;10257641;28;20256;-66
2022/03/04 04:01:25;;;;;;;;;;;;;;;3.25;100.00;100796.19;10257489;28;19932;-66
2022/03/04 04:06:28;;;;;;;;;;;;;;;3.28;100.00;100797.13;10257489;28;20263;-67
2022/03/04 04:11:35;;;;;;;;;;;;;;;3.34;100.00;100802.44;10257430;28;19922;-68
2022/03/04 04:16:38;;;;;;;;;;;;;;;3.34;100.00;100796.44;10256864;28;19927;-66
2022/03/04 04:21:41;;;;;;;;;;;;;;;3.23;100.00;100797.81;10257078;28;19923;-67
2022/03/04 04:26:46;;;;;;;;;;;;;;;3.24;100.00;100803.03;10256616;28;20335;-68
2022/03/04 04:31:49;;;;;;;;;;;;;;;3.28;100.00;100799.69;10257457;28;19922;-67
2022/03/04 04:36:52;;;;;;;;;;;;;;;3.32;100.00;100806.66;10256947;28;20307;-66
2022/03/04 04:41:57;;;;;;;;;;;;;;;3.34;100.00;100806.69;10256668;28;19922;-67
2022/03/04 04:47:00;;;;;;;;;;;;;;;3.28;100.00;100804.81;10256468;28;19929;-65
2022/03/04 04:52:03;;;;;;;;;;;;;;;3.35;100.00;100810.97;10256411;28;19922;-68
2022/03/04 04:57:08;;;;;;;;;;;;;;;3.34;100.00;100816.94;10256948;28;19926;-64
2022/03/04 05:02:11;;;;;;;;;;;;;;;3.33;100.00;100820.34;10256180;28;19929;-69
2022/03/04 05:07:14;;;;;;;;;;;;;;;3.29;100.00;100818.53;10256105;28;19933;-65
2022/03/04 05:12:19;;;;;;;;;;;;;;;3.24;100.00;100817.53;10255965;28;19922;-69
2022/03/04 05:17:22;;;;;;;;;;;;;;;3.23;100.00;100814.09;10256507;28;20236;-67
2022/03/04 05:22:25;;;;;;;;;;;;;;;3.22;100.00;100824.31;10255842;28;19922;-66
2022/03/04 05:27:30;;;;;;;;;;;;;;;3.15;100.00;100830.09;10257543;28;20377;-67
2022/03/04 05:32:33;;;;;;;;;;;;;;;3.16;100.00;100834.41;10263401;28;20373;-63
2022/03/04 05:37:36;;;;;;;;;;;;;;;3.20;100.00;100843.91;10263514;28;19922;-68
2022/03/04 05:42:40;;;;;;;;;;;;;;;3.22;100.00;100845.72;10262854;28;19922;-66
2022/03/04 05:47:43;;;;;;;;;;;;;;;3.16;100.00;100845.53;10262690;28;19933;-68
2022/03/04 05:52:46;;;;;;;;;;;;;;;3.10;100.00;100850.50;10262544;28;19922;-68
2022/03/04 05:57:51;;;;;;;;;;;;;;;3.22;100.00;100853.41;10262640;28;19933;-67
2022/03/04 06:02:54;;;;;;;;;;;;;;;3.22;100.00;100850.84;10261825;28;19948;-66
2022/03/04 06:07:57;;;;;;;;;;;;;;;3.19;100.00;100858.44;10261929;28;19926;-64
2022/03/04 06:13:01;;;;;;;;;;;;;;;3.24;100.00;100864.56;10261505;28;19933;-69
2022/03/04 06:18:05;;;;;;;24.37;10.63;;;;;;;3.28;100.00;100874.06;10261099;28;20210;-69
2022/03/04 06:23:09;;;;;;;23.30;11.70;;;;;;;3.34;100.00;100878.50;10260908;28;20220;-69
2022/03/04 06:28:14;;;;;;;29.40;13.90;;;;;;;3.38;100.00;100893.16;10254566;28;20901;-65
2022/03/04 06:33:32;;;;;;;27.50;14.77;;;;;;;3.39;100.00;100889.75;10257943;28;20402;-67
2022/03/04 06:38:38;;;;;;;24.63;12.60;;;;;;;3.44;100.00;100899.31;10269201;28;20897;-67
2022/03/04 06:43:45;;;;;;;26.30;12.97;;;;;;;3.54;100.00;100900.41;10254627;28;20795;-67
2022/03/04 06:48:48;;;;;;;23.33;12.73;;;;;;;3.61;100.00;100893.78;9911719;28;10001209;-65
2022/03/04 06:53:52;;;;;;;23.27;12.80;;;;;;;3.65;100.00;100896.44;10214372;29;20404;-66
2022/03/04 06:58:56;;;;;;;21.83;12.02;;;;;;;3.75;100.00;100905.25;10244649;29;20404;-67
2022/03/04 07:04:00;;;;;;;19.63;11.20;;;;;;;3.77;100.00;100901.91;10253107;28;20423;-66
2022/03/04 07:09:03;;;;;;;13.60;7.50;;;;;;;3.71;100.00;100911.16;10255692;28;20228;-69
2022/03/04 07:14:08;;;;;;;14.18;9.00;;;;;;;3.72;100.00;100912.88;10252683;29;20416;-67
2022/03/04 07:19:11;;;;;;;13.93;7.97;;;;;;;3.52;100.00;100922.59;10255119;28;20311;-68
2022/03/04 07:24:15;;;;;;;13.40;7.30;;;;;;;3.62;100.00;100922.03;10255125;28;20310;-67
2022/03/04 07:29:19;;;;;;;15.43;7.70;;;;;;;3.60;100.00;100928.81;10254636;28;20303;-66
2022/03/04 07:34:24;;;;;;;17.70;8.27;;;;;;;3.59;100.00;100929.63;10255029;29;20228;-66
2022/03/04 07:39:27;;;;;;;15.87;7.77;;;;;;;3.66;100.00;100936.66;10254662;28;20230;-67
2022/03/04 07:44:32;;;;;;;16.10;7.53;;;;;;;3.77;100.00;100942.09;10254077;28;20232;-64
2022/03/04 07:49:35;;;;;;;14.10;7.33;;;;;;;3.76;100.00;100941.25;10253307;28;20220;-66
2022/03/04 07:54:38;;;;;;;14.53;7.83;;;;;;;3.74;100.00;100945.47;10253815;28;20232;-66
2022/03/04 07:59:43;;;;;;;17.77;8.87;;;;;;;3.67;100.00;100946.13;10253013;29;20216;-68
2022/03/04 08:04:46;;;;;;;16.20;7.30;;;;;;;3.64;100.00;100952.88;10253756;28;20231;-69
2022/03/04 08:09:50;;;;;;;14.83;7.40;;;;;;;3.63;100.00;100956.25;10253082;28;20216;-65
2022/03/04 08:14:54;;;;;;;20.70;8.50;;;;;;;3.44;100.00;100954.88;10253242;28;20713;-65
2022/03/04 08:19:58;;;;;;;19.08;10.85;;;;;;;3.42;100.00;100970.22;10250128;28;20406;-66
2022/03/04 08:25:01;;;;;;;24.02;12.75;;;;;;;3.48;100.00;100965.28;10249998;28;20885;-66
2022/03/04 08:30:08;;;;;;;21.03;9.63;;;;;;;3.40;100.00;100982.13;10253174;28;20315;-69
2022/03/04 08:35:12;;;;;;;16.90;9.07;;;;;;;3.47;100.00;100985.75;10253013;28;20228;-66
2022/03/04 08:40:15;;;;;;;19.13;8.73;;;;;;;3.48;100.00;100982.38;10252621;28;20311;-68
2022/03/04 08:45:20;;;;;;;19.27;11.30;;;;;;;3.46;100.00;100992.59;10249902;28;20422;-66
2022/03/04 08:50:24;;;;;;;18.17;10.82;;;;;;;3.61;100.00;100994.69;10249909;28;20396;-67
2022/03/04 08:55:30;;;;;;;18.98;11.50;;;;;;;3.70;100.00;100997.53;10250912;28;20404;-67
2022/03/04 09:00:35;;;;;;;17.87;9.07;;;;;;;3.62;100.00;100991.31;10252495;28;20212;-70
2022/03/04 09:05:38;;;;;;;18.23;9.67;;;;;;;3.71;100.00;100994.13;10245446;28;20230;-69
2022/03/04 09:10:41;;;;;;;20.77;9.70;;;;;;;3.84;100.00;100997.91;10243523;28;20227;-69
2022/03/04 09:15:46;;;;;;;19.70;9.70;;;;;;;3.75;100.00;100993.38;10237773;28;20248;-67
2022/03/04 09:20:50;;;;;;;14.10;8.30;;;;;;;3.75;100.00;100998.53;10237587;28;20271;-68
2022/03/04 09:25:53;;;;;;;17.33;10.63;;;;;;;3.88;100.00;101004.88;10237948;28;20424;-65
2022/03/04 09:30:58;;;;;;;17.70;9.45;;;;;;;3.74;100.00;101011.31;10228258;28;20404;-65
2022/03/04 09:36:01;;;;;;;16.60;9.03;;;;;;;3.65;100.00;101000.78;10259362;28;20676;-65
2022/03/04 09:41:06;;;;;;;16.10;9.38;;;;;;;3.72;100.00;101008.72;10256588;28;20495;-65
2022/03/04 09:46:11;;;;;;;17.02;9.80;;;;;;;3.68;100.00;101019.72;10238101;28;20500;-67
2022/03/04 09:51:14;;;;;;;16.92;9.60;;;;;;;3.62;100.00;101024.69;10216730;29;20724;-65
2022/03/04 09:56:19;;;;;;;16.15;10.07;;;;;;;3.47;100.00;101025.09;10216805;29;20738;-65
2022/03/04 10:01:23;;;;;;;17.92;10.68;;;;;;;3.51;100.00;101015.81;10219495;29;20397;-67
2022/03/04 10:06:27;;;;;;;15.00;8.67;;;;;;;3.39;100.00;101024.03;10219133;29;20532;-68
2022/03/04 10:11:33;;;;;;;18.02;11.50;;;;;;;3.55;100.00;101022.78;10215906;29;20412;-67
2022/03/04 10:16:39;;;;;;;16.20;8.73;;;;;;;3.43;100.00;101023.28;10217196;29;20242;-63
2022/03/04 10:21:51;;;;;;;18.30;8.87;;;;;;;3.48;100.00;101023.41;10218219;29;20201;-66
2022/03/04 10:27:02;;;;;;;15.47;8.40;;;;;;;3.52;100.00;101018.41;10217638;29;20221;-69
2022/03/04 10:32:15;;;;;;;17.03;11.70;;;;;;;3.62;100.00;101011.84;10215319;29;20456;-67
2022/03/04 10:37:39;;;;;;;18.67;9.77;;;;;;;3.78;100.00;101010.59;10217967;29;20579;-65
2022/03/04 10:42:48;;;;;;;21.43;10.83;;;;;;;3.96;100.00;101005.94;10217559;29;20235;-65
2022/03/04 10:47:57;;;;;;;20.13;10.80;;;;;;;4.15;100.00;101003.88;10248823;28;20602;-68
2022/03/04 10:53:02;;;;;;;18.40;10.03;;;;;;;4.54;100.00;101011.72;10256802;28;20220;-65
2022/03/04 10:58:08;;;;;;;18.30;9.87;;;;;;;4.76;100.00;101008.84;10256917;28;20691;-67
2022/03/04 11:03:18;;;;;;;18.77;10.40;;;;;;;5.23;100.00;101007.34;10256374;28;20203;-66
2022/03/04 11:08:21;;;;;;;20.80;12.80;;;;;;;5.42;100.00;101010.31;10253281;28;20408;-67
2022/03/04 11:13:26;;;;;;;17.90;10.90;;;;;;;5.55;100.00;101009.75;10255739;28;20319;-65
2022/03/04 11:18:30;;;;;;;17.17;9.80;;;;;;;5.94;100.00;101007.09;10255615;28;20210;-70
2022/03/04 11:23:35;;;;;;;17.07;8.43;;;;;;;6.34;100.00;100994.09;10255370;28;20283;-68
2022/03/04 11:28:41;;;;;;;14.43;8.63;;;;;;;6.39;100.00;101002.78;10255397;28;20212;-67
2022/03/04 11:33:51;;;;;;;12.47;6.90;;;;;;;6.51;100.00;101000.41;10255158;28;20184;-66
2022/03/04 11:38:59;;;;;;;13.30;7.30;;;;;;;6.68;100.00;100996.38;10254881;28;20207;-67
2022/03/04 11:44:12;;;;;;;13.90;7.10;;;;;;;7.15;100.00;100993.63;10254685;28;20215;-67
2022/03/04 11:49:34;;;;;;;12.57;6.53;;;;;;;6.56;100.00;100995.31;10254220;28;20230;-67
2022/03/04 11:54:39;;;;;;;13.77;6.40;;;;;;;6.38;100.00;101001.06;10254356;28;20549;-68
2022/03/04 11:59:49;;;;;;;11.10;5.93;;;;;;;6.25;100.00;100993.94;10254880;28;20545;-64
2022/03/04 12:05:30;;;;;;;13.47;7.20;;;;;;;6.91;100.00;100994.16;10253774;28;20234;-68
2022/03/04 12:10:36;;;;;;;18.47;8.57;;;;;;;6.77;100.00;100981.06;10253855;28;20227;-66
2022/03/04 12:15:41;;;;;;;13.47;6.90;;;;;;;6.67;100.00;100992.06;10253257;28;20274;-65
2022/03/04 12:21:13;;;;;;;11.00;5.87;;;;;;;6.61;100.00;100976.50;10253348;28;20220;-65
2022/03/04 12:26:26;;;;;;;9.67;5.10;;;;;;;6.57;99.56;100979.00;10253195;28;20219;-70
2022/03/04 12:31:38;;;;;;;11.27;5.77;;;;;;;6.79;98.25;100973.31;10253051;28;20649;-63
2022/03/04 12:36:43;;;;;;;11.43;6.13;;;;;;;6.73;96.64;100968.09;10253056;28;20743;-68
2022/03/04 12:41:47;;;;;;;15.10;7.57;;;;;;;6.54;100.00;100987.53;10252687;28;20302;-70
2022/03/04 12:46:51;;;;;;;11.67;5.53;;;;;;;6.29;100.00;100984.53;10252423;28;20266;-67
2022/03/04 12:51:55;;;;;;;12.97;5.93;;;;;;;6.03;100.00;100994.41;10251948;28;20929;-65
2022/03/04 12:57:01;;;;;;;14.50;7.20;;;;;;;5.82;100.00;100991.38;10252540;28;20230;-65
2022/03/04 13:02:04;;;;;;;14.90;7.57;;;;;;;5.79;100.00;100993.91;10252792;28;20555;-69
2022/03/04 13:07:09;;;;;;;14.47;7.03;;;;;;;5.69;100.00;100989.44;10252491;28;20219;-65
2022/03/04 13:12:12;;;;;;;14.73;7.97;;;;;;;5.85;100.00;100996.63;10252283;28;20288;-64
2022/03/04 13:17:17;;;;;;;19.47;8.13;;;;;;;5.73;100.00;100997.22;10253119;28;20236;-67
2022/03/04 13:22:22;;;;;;;15.33;7.00;;;;;;;5.79;100.00;100991.34;10252177;28;20231;-63
2022/03/04 13:27:36;;;;;;;13.77;8.20;;;;;;;5.70;100.00;100986.00;10252430;28;20231;-66
2022/03/04 13:32:44;;;;;;;20.17;8.57;;;;;;;5.48;100.00;100984.72;10252531;28;20192;-64
2022/03/04 13:37:49;;;;;;;16.23;8.37;;;;;;;5.48;100.00;100983.84;10252179;28;20207;-65
2022/03/04 13:42:56;;;;;;;23.42;11.07;;;;;;;5.58;100.00;100988.34;10249287;28;20840;-64
2022/03/04 13:48:01;;;;;;;18.40;8.23;;;;;;;5.57;100.00;100997.75;10252405;28;20216;-65
2022/03/04 13:53:09;;;;;;;20.03;8.17;;;;;;;5.72;100.00;100984.31;10259334;29;20195;-66
2022/03/04 13:58:17;;;;;;;16.27;7.87;;;;;;;5.74;100.00;100987.81;10258795;28;20286;-68
2022/03/04 14:03:24;;;;;;;19.10;8.90;;;;;;;5.74;100.00;100998.09;10258588;28;20203;-65
2022/03/04 14:08:30;;;;;;;19.47;9.10;;;;;;;5.88;100.00;101002.69;10258615;28;20227;-64
2022/03/04 14:13:34;;;;;;;21.33;8.97;;;;;;;5.73;99.83;100996.34;10258281;28;20262;-66
2022/03/04 14:18:38;;;;;;;18.47;9.13;;;;;;;5.84;98.86;101000.03;10257807;28;20196;-66
2022/03/04 14:23:42;;;;;;;18.03;9.47;;;;;;;6.00;99.17;101003.78;10257003;28;20216;-65
2022/03/04 14:29:09;;;;;;;20.37;9.03;;;;;;;5.85;96.49;101007.81;10257422;28;20236;-67
2022/03/04 14:34:09;;;;;;;22.47;9.57;;;;;;;5.99;97.31;101012.38;10257146;28;20579;-63
2022/03/04 14:39:14;;;;;;;19.20;8.90;;;;;;;5.96;93.97;101012.28;10257075;28;20200;-67
2022/03/04 14:44:17;;;;;;;16.60;8.70;;;;;;;5.86;91.35;101013.84;10256625;28;20209;-66
2022/03/04 14:49:21;;;;;;;18.83;8.87;;;;;;;5.74;92.79;101008.41;10263360;28;20212;-65
2022/03/04 14:54:25;;;;;;;16.67;8.37;;;;;;;5.76;93.22;101010.16;10239198;28;20224;-67
2022/03/04 14:59:49;;;;;;;18.20;8.30;;;;;;;5.76;91.76;101001.59;10236570;28;20209;-65
2022/03/04 15:04:53;;;;;;;14.40;7.77;;;;;;;5.74;92.36;101008.41;10239624;28;20254;-66
2022/03/04 15:09:58;;;;;;;17.93;7.83;;;;;;;5.68;92.34;101018.56;10234978;29;20647;-66
2022/03/04 15:15:18;;;;;;;15.53;8.07;;;;;;;5.73;91.60;101017.81;10235134;29;20546;-67
2022/03/04 15:20:23;;;;;;;14.17;6.73;;;;;;;5.70;92.27;101025.50;10234923;28;20250;-65
2022/03/04 15:25:28;;;;;;;15.37;7.87;;;;;;;5.55;91.34;101022.63;10232952;29;20231;-68
2022/03/04 15:30:32;;;;;;;16.70;7.33;;;;;;;5.46;93.65;101026.69;10257555;28;20215;-66
2022/03/04 15:35:35;;;;;;;17.97;7.77;;;;;;;5.39;93.12;101028.28;10294978;28;20243;-65
2022/03/04 15:40:41;;;;;;;21.15;9.88;;;;;;;5.45;98.55;101028.41;10291985;28;20418;-66
2022/03/04 15:45:44;;;;;;;16.17;8.87;;;;;;;5.31;95.23;101034.09;10280182;28;20220;-65
2022/03/04 15:50:47;;;;;;;18.30;8.70;;;;;;;5.27;96.71;101045.16;10254150;28;20726;-67
2022/03/04 15:55:52;;;;;;;20.27;9.60;;;;;;;5.22;94.59;101036.47;10254346;28;20224;-69
2022/03/04 16:00:56;;;;;;;19.30;10.10;;;;;;;5.14;92.46;101041.47;10254187;28;20226;-66
2022/03/04 16:05:59;;;;;;;18.10;9.57;;;;;;;5.11;94.12;101050.81;10253551;28;20230;-67
2022/03/04 16:11:08;;;;;;;18.53;8.97;;;;;;;5.10;96.64;101044.78;10253371;28;20231;-66
2022/03/04 16:16:13;;;;;;;20.53;10.53;;;;;;;5.09;97.06;101055.03;10254300;28;20240;-67
2022/03/04 16:21:16;;;;;;;20.93;9.23;;;;;;;5.06;97.16;101058.41;10253256;28;20230;-69
2022/03/04 16:26:21;;;;;;;21.57;9.13;;;;;;;4.96;95.97;101059.03;10253119;28;20238;-64
2022/03/04 16:31:24;;;;;;;19.07;8.93;;;;;;;5.02;97.00;101060.88;10252534;28;20220;-66
2022/03/04 16:36:28;;;;;;;18.40;9.37;;;;;;;4.99;98.39;101069.38;10252826;28;20246;-66
2022/03/04 16:41:33;;;;;;;19.30;9.33;;;;;;;5.03;98.76;101080.63;10250849;28;20664;-64
2022/03/04 16:46:39;;;;;;;17.77;9.77;;;;;;;5.06;100.00;101090.97;10244411;28;20240;-66
2022/03/04 16:52:02;;;;;;;17.00;9.50;;;;;;;4.83;100.00;101102.41;10244506;29;20676;-67
2022/03/04 16:57:10;;;;;;;19.30;9.57;;;;;;;4.58;100.00;101106.06;10252496;28;20224;-67
2022/03/04 17:02:14;;;;;;;20.27;9.13;;;;;;;4.47;100.00;101108.34;10251451;28;20307;-68
2022/03/04 17:07:18;;;;;;;19.50;9.43;;;;;;;4.32;100.00;101112.22;10252720;28;20239;-66
2022/03/04 17:12:22;;;;;;;19.07;8.30;;;;;;;4.26;100.00;101107.78;10251792;28;20672;-64
2022/03/04 17:17:26;;;;;;;17.10;8.57;;;;;;;4.09;100.00;101119.28;10252208;28;20239;-66
2022/03/04 17:22:29;;;;;;;20.27;9.10;;;;;;;4.11;100.00;101112.50;10253351;28;20232;-66
2022/03/04 17:27:34;;;;;;;20.05;11.63;;;;;;;4.14;100.00;101122.84;10256989;29;20420;-68
2022/03/04 17:32:38;;;;;;;15.40;8.27;;;;;;;4.03;100.00;101121.72;10259837;28;20242;-63
2022/03/04 17:37:41;;;;;;;16.63;7.67;;;;;;;3.92;100.00;101117.94;10259445;28;20279;-63
2022/03/04 17:42:46;;;;;;;38.23;19.70;;;;;;;4.09;100.00;101114.16;10252160;28;20208;-67
2022/03/04 17:47:50;;;;;;;12.57;7.10;;;;;;;4.18;100.00;101116.97;10249858;28;20668;-67
2022/03/04 17:52:53;;;;;;;14.37;6.10;;;;;;;4.14;100.00;101119.44;10245638;28;20217;-67
2022/03/04 17:57:58;;;;;;;12.73;6.73;;;;;;;4.13;100.00;101122.81;10248927;29;20568;-67
2022/03/04 18:03:01;;;;;;;14.33;6.40;;;;;;;3.98;100.00;101136.13;10256238;29;20216;-66
2022/03/04 18:08:07;;;;;;;13.80;6.77;;;;;;;3.99;100.00;101135.28;10257712;29;20226;-66
2022/03/04 18:13:12;;;;;;;17.63;7.40;;;;;;;4.00;100.00;101131.91;10256641;28;20236;-65
2022/03/04 18:18:16;;;;;;;16.00;7.07;;;;;;;4.07;100.00;101136.34;10258046;28;20189;-64
2022/03/04 18:23:19;;;;;;;13.63;6.10;;;;;;;4.02;100.00;101142.22;10257809;28;20211;-65
2022/03/04 18:28:45;;;;;;;13.30;6.20;;;;;;;4.07;100.00;101141.50;10257555;28;20223;-68
2022/03/04 18:33:48;;;;;;;12.63;6.93;;;;;;;3.98;96.18;101143.81;10256608;28;20206;-67
2022/03/04 18:44:13;;;;;;;17.17;7.83;;;;;;;3.81;98.84;101152.72;10255091;29;20222;-67
2022/03/04 18:49:16;;;;;;;13.57;7.10;;;;;;;3.79;98.86;101161.19;10235871;29;20234;-70
2022/03/04 18:54:20;;;;;;;16.55;9.70;;;;;;;3.74;98.87;101161.06;10237963;28;20414;-68
2022/03/04 18:59:25;;;;;;;19.42;10.20;;;;;;;3.74;100.00;101175.59;10229550;29;20407;-69
2022/03/04 19:04:32;;;;;;;18.50;7.90;;;;;;;3.74;100.00;101165.31;10255652;28;20210;-66
2022/03/04 19:09:38;;;;;;;19.43;9.63;;;;;;;3.67;100.00;101165.97;10252705;29;20295;-69
2022/03/04 19:14:45;;;;;;;17.13;8.37;;;;;;;3.60;100.00;101161.47;10255912;28;20278;-65
2022/03/04 19:19:48;;;;;;;19.23;8.90;;;;;;;3.56;100.00;101165.63;10256100;28;20221;-67
2022/03/04 19:24:53;;;;;;;20.15;10.45;;;;;;;3.58;100.00;101155.41;10252672;28;20455;-70
2022/03/04 19:29:58;;;;;;;20.20;10.70;;;;;;;3.52;100.00;101150.94;10255119;28;20239;-68
2022/03/04 19:35:01;;;;;;;24.33;10.67;;;;;;;3.39;100.00;101160.00;10254847;28;20220;-66
2022/03/04 19:40:06;;;;;;;19.17;9.23;;;;;;;3.40;100.00;101168.53;10254889;28;20232;-67
2022/03/04 19:45:12;;;;;;;16.83;9.07;;;;;;;3.42;100.00;101178.03;10254927;28;20694;-66
2022/03/04 19:50:15;;;;;;;20.80;9.80;;;;;;;3.37;100.00;101182.16;10254028;28;20663;-67
2022/03/04 19:55:19;;;;;;;20.03;7.90;;;;;;;3.33;100.00;101179.47;10237280;28;20332;-67
2022/03/04 20:00:24;;;;;;;14.23;6.60;;;;;;;3.36;99.62;101177.84;10214838;29;20681;-66
2022/03/04 20:05:27;;;;;;;13.70;6.50;;;;;;;3.39;99.90;101169.38;10214416;29;20242;-66
2022/03/04 20:10:31;;;;;;;17.83;8.13;;;;;;;3.47;100.00;101179.06;10214083;29;20229;-67
2022/03/04 20:15:35;;;;;;;19.20;8.17;;;;;;;3.43;100.00;101173.78;10214062;29;20243;-66
2022/03/04 20:20:39;;;;;;;17.33;7.77;;;;;;;3.36;97.73;101172.72;10214020;29;20259;-65
2022/03/04 20:25:43;;;;;;;15.07;7.43;;;;;;;3.38;99.35;101171.06;10214084;29;20311;-67
2022/03/04 20:30:47;;;;;;;19.77;11.23;;;;;;;3.44;100.00;101160.13;10211391;29;20425;-65
2022/03/04 20:35:51;;;;;;;24.13;10.33;;;;;;;3.39;99.18;101156.53;10291016;28;20281;-65
2022/03/04 20:40:54;;;;;;;21.40;10.27;;;;;;;3.23;98.58;101162.00;10293108;28;20357;-64
2022/03/04 20:45:59;;;;;;;23.37;10.60;;;;;;;3.32;97.21;101173.44;10276633;28;20692;-66
2022/03/04 20:51:04;;;;;;;23.23;11.00;;;;;;;3.29;95.20;101183.63;10252742;28;20224;-65
2022/03/04 20:56:07;;;;;;;24.03;10.80;;;;;;;3.26;95.66;101180.09;10253195;28;20215;-65
2022/03/04 21:01:12;;;;;;;25.43;11.10;;;;;;;3.23;94.75;101190.22;10260198;28;20220;-66
2022/03/04 21:06:16;;;;;;;28.43;11.07;;;;;;;3.17;95.82;101192.59;10260705;28;20224;-66
2022/03/04 21:11:21;;;;;;;25.37;11.40;;;;;;;3.11;94.65;101194.94;10260613;28;20624;-63
2022/03/04 21:16:25;;;;;;;28.00;12.03;;;;;;;3.05;93.74;101195.63;10260521;28;20243;-65
2022/03/04 21:21:29;;;;;;;28.73;11.97;;;;;;;3.13;94.48;101188.19;10260246;28;20249;-65
2022/03/04 21:26:32;;;;;;;25.30;10.77;;;;;;;3.06;91.49;101183.66;10260123;28;20711;-62
2022/03/04 21:31:37;;;;;;;30.50;11.67;;;;;;;3.01;93.14;101180.09;10259764;28;20656;-63
2022/03/04 21:36:40;;;;;;;26.20;14.00;;;;;;;3.07;95.25;101181.16;10257134;28;20489;-64
2022/03/04 21:41:44;;;;;;;25.05;12.45;;;;;;;3.08;91.99;101185.47;10256830;28;20404;-64
2022/03/04 21:46:48;;;;;;;23.35;11.93;;;;;;;3.11;90.59;101189.81;10256812;28;20420;-66
2022/03/04 21:51:52;;;;;;;18.30;6.97;;;;;;;2.97;81.98;101185.94;10240547;28;20676;-65
2022/03/04 21:56:56;;;;;;;14.07;5.53;;;;;;;2.97;81.79;101191.06;10219199;29;20232;-68
2022/03/04 22:02:01;;;;;;;12.40;6.63;;;;;;;2.99;79.48;101182.59;10217440;29;20746;-64
2022/03/04 22:07:04;;;;;;;10.90;5.07;;;;;;;3.02;77.21;101190.38;10217389;29;20404;-62
2022/03/04 22:12:13;;;;;;;9.10;3.30;;;;;;;3.03;76.65;101188.72;10217423;29;20694;-67
2022/03/04 22:17:17;;;;;;;9.87;3.80;;;;;;;2.84;72.49;101194.03;10218779;29;20229;-66
2022/03/04 22:22:21;;;;;;;6.57;2.90;;;;;;;2.77;74.81;101192.06;10218303;29;20235;-67
2022/03/04 22:27:24;;;;;;;6.37;2.13;;;;;;;2.81;71.69;101196.50;10218910;29;20728;-67
2022/03/04 22:32:29;;;;;;;6.17;2.10;;;;;;;2.77;69.09;101198.09;10221216;29;20225;-65
2022/03/04 22:37:33;;;;;;;6.40;1.90;;;;;;;2.80;69.56;101198.19;10221410;29;20216;-63
2022/03/04 22:42:36;;;;;;;6.28;2.20;;;;;;;2.84;65.36;101205.16;10218192;29;20460;-62
2022/03/04 22:47:42;;;;;;;6.53;2.50;;;;;;;2.87;66.51;101195.00;10218089;29;20402;-63
2022/03/04 22:52:45;;;;;;;8.98;2.75;;;;;;;3.00;67.35;101201.44;10217609;29;20425;-62
2022/03/04 22:57:49;;;;;;;6.07;2.30;;;;;;;2.99;67.87;101202.22;10219961;29;20221;-65
2022/03/04 23:08:16;;;;;;;7.53;2.90;;;;;;;3.04;70.03;101205.81;10219648;29;20308;-66
2022/03/04 23:13:19;;;;;;;8.17;2.97;;;;;;;3.11;70.34;101205.19;10219374;29;20264;-67
2022/03/04 23:18:24;;;;;;;7.80;3.45;;;;;;;2.95;71.28;101208.94;10216769;29;20402;-64
2022/03/04 23:23:27;;;;;;;6.90;2.80;;;;;;;2.98;72.86;101213.31;10219409;29;20216;-65
2022/03/04 23:28:30;;;;;;;5.87;2.57;;;;;;;2.79;70.87;101210.94;10219223;29;20231;-68
2022/03/04 23:33:35;;;;;;;5.57;2.50;;;;;;;2.88;74.29;101216.41;10218582;29;20255;-65
2022/03/04 23:38:40;;;;;;;8.27;3.23;;;;;;;2.86;73.61;101212.91;10215318;29;20229;-63
2022/03/04 23:43:47;;;;;;;6.70;2.70;;;;;;;2.79;73.39;101226.31;10215238;29;20676;-66
2022/03/04 23:48:56;;;;;;;9.20;2.73;;;;;;;2.81;74.44;101224.69;10215775;29;20241;-64
2022/03/04 23:54:00;;;;;;;8.43;3.30;;;;;;;2.86;73.61;101230.84;9897832;28;9999975;-66
2022/03/04 23:59:03;;;;;;;7.80;2.80;;;;;;;2.87;72.95;101235.13;10254439;28;20228;-66
